createdAt,value
2018-06-29T00:02:06.628Z,44.23
2018-06-29T00:04:34.829Z,50.45
2018-06-29T00:07:03.057Z,52.10
2018-06-29T00:09:31.289Z,40.30
2018-06-29T00:11:59.497Z,38.23
2018-06-29T00:14:27.781Z,44.30
2018-06-29T00:16:56.074Z,43.40
2018-06-29T00:19:24.354Z,51.65
2018-06-29T00:21:52.872Z,43.45
2018-06-29T00:24:21.073Z,47.20
2018-06-29T00:26:49.308Z,45.28
2018-06-29T00:29:17.525Z,44.80
2018-06-29T00:31:45.765Z,39.95
2018-06-29T00:34:14.059Z,40.43
2018-06-29T00:36:42.265Z,32.93
2018-06-29T00:39:10.472Z,40.10
2018-06-29T00:41:38.679Z,43.65
2018-06-29T00:44:06.949Z,43.25
2018-06-29T00:46:35.202Z,47.53
2018-06-29T00:49:03.513Z,39.50
2018-06-29T00:51:32.034Z,39.65
2018-06-29T00:54:00.217Z,44.23
2018-06-29T00:56:28.489Z,40.17
2018-06-29T00:58:56.727Z,34.40
2018-06-29T01:01:24.970Z,39.15
2018-06-29T01:03:53.200Z,37.38
2018-06-29T01:06:21.529Z,38.35
2018-06-29T01:08:49.765Z,40.20
2018-06-29T01:11:18.011Z,38.90
2018-06-29T01:13:46.238Z,38.45
2018-06-29T01:16:14.509Z,42.03
2018-06-29T01:18:42.761Z,43.50
2018-06-29T01:21:11.028Z,38.55
2018-06-29T01:23:39.264Z,41.60
2018-06-29T01:26:07.569Z,39.83
2018-06-29T01:28:35.854Z,35.83
2018-06-29T01:31:04.132Z,41.53
2018-06-29T01:33:32.428Z,38.28
2018-06-29T01:36:00.697Z,36.73
2018-06-29T01:38:28.944Z,35.05
2018-06-29T01:40:57.201Z,38.60
2018-06-29T01:43:25.398Z,41.42
2018-06-29T01:45:53.653Z,41.57
2018-06-29T01:48:21.929Z,44.60
2018-06-29T01:50:50.120Z,39.83
2018-06-29T01:53:18.346Z,39.25
2018-06-29T01:55:46.545Z,40.43
2018-06-29T01:58:14.774Z,38.48
2018-06-29T02:00:43.113Z,38.05
2018-06-29T02:03:11.313Z,37.13
2018-06-29T02:05:39.549Z,41.95
2018-06-29T02:08:07.780Z,41.00
2018-06-29T02:10:36.025Z,44.77
2018-06-29T02:13:04.289Z,43.42
2018-06-29T02:15:32.489Z,49.35
2018-06-29T02:18:00.825Z,50.70
2018-06-29T02:20:29.081Z,44.45
2018-06-29T02:22:57.356Z,43.98
2018-06-29T02:25:25.577Z,49.03
2018-06-29T02:27:53.769Z,45.83
2018-06-29T02:30:21.986Z,44.70
2018-06-29T02:32:50.222Z,44.95
2018-06-29T02:35:18.452Z,49.40
2018-06-29T02:37:46.681Z,49.38
2018-06-29T02:40:14.881Z,44.45
2018-06-29T02:42:43.176Z,48.80
2018-06-29T02:45:11.458Z,47.73
2018-06-29T02:47:39.697Z,42.55
2018-06-29T02:50:07.981Z,47.03
2018-06-29T02:52:36.199Z,47.03
2018-06-29T02:55:04.489Z,43.98
2018-06-29T02:57:32.772Z,42.95
2018-06-29T03:00:01.073Z,41.10
2018-06-29T03:02:29.330Z,45.40
2018-06-29T03:04:57.553Z,47.38
2018-06-29T03:07:25.805Z,46.37
2018-06-29T03:09:54.239Z,48.35
2018-06-29T03:12:22.473Z,41.63
2018-06-29T03:14:50.744Z,39.23
2018-06-29T03:17:18.974Z,36.05
2018-06-29T03:19:47.230Z,41.05
2018-06-29T03:22:15.613Z,44.48
2018-06-29T03:24:43.887Z,43.00
2018-06-29T03:27:12.105Z,43.90
2018-06-29T03:29:41.152Z,42.78
2018-06-29T03:32:09.526Z,34.50
2018-06-29T03:34:37.708Z,43.85
2018-06-29T03:37:06.120Z,42.33
2018-06-29T03:39:34.353Z,39.42
2018-06-29T03:42:02.301Z,38.55
2018-06-29T03:44:30.548Z,35.55
2018-06-29T03:46:58.794Z,39.80
2018-06-29T03:49:27.112Z,41.15
2018-06-29T03:51:55.320Z,37.58
2018-06-29T03:54:23.524Z,38.70
2018-06-29T03:56:51.832Z,40.67
2018-06-29T03:59:20.017Z,42.33
2018-06-29T04:01:48.250Z,44.10
2018-06-29T04:04:16.474Z,40.10
2018-06-29T04:06:44.705Z,38.97
2018-06-29T04:09:12.929Z,41.30
2018-06-29T04:11:41.193Z,40.43
2018-06-29T04:14:09.162Z,37.58
2018-06-29T04:16:37.986Z,40.90
2018-06-29T04:19:06.528Z,43.17
2018-06-29T04:21:35.073Z,41.08
2018-06-29T04:24:03.367Z,36.15
2018-06-29T04:26:32.167Z,41.55
2018-06-29T04:29:00.427Z,39.65
2018-06-29T04:31:28.811Z,42.43
2018-06-29T04:33:57.157Z,42.53
2018-06-29T04:36:25.517Z,40.15
2018-06-29T04:38:53.777Z,39.78
2018-06-29T04:41:22.049Z,45.15
2018-06-29T04:43:50.554Z,48.37
2018-06-29T04:46:18.901Z,41.35
2018-06-29T04:48:47.099Z,43.58
2018-06-29T04:51:15.394Z,41.20
2018-06-29T04:53:43.624Z,37.40
2018-06-29T04:56:11.845Z,37.17
2018-06-29T04:58:40.086Z,37.55
2018-06-29T05:01:08.317Z,34.85
2018-06-29T05:03:36.541Z,38.10
2018-06-29T05:06:04.878Z,39.20
2018-06-29T05:08:33.099Z,37.23
2018-06-29T05:11:01.387Z,34.45
2018-06-29T05:13:29.576Z,34.55
2018-06-29T05:15:57.848Z,37.50
2018-06-29T05:18:26.053Z,37.93
2018-06-29T05:20:54.294Z,33.85
2018-06-29T05:23:22.506Z,31.90
2018-06-29T05:25:50.698Z,27.50
2018-06-29T05:28:19.016Z,33.28
2018-06-29T05:30:47.289Z,33.58
2018-06-29T05:33:15.494Z,36.00
2018-06-29T05:35:43.768Z,32.05
2018-06-29T05:38:11.952Z,28.95
2018-06-29T05:40:40.231Z,32.90
2018-06-29T05:43:08.507Z,31.60
2018-06-29T05:45:36.681Z,36.75
2018-06-29T05:48:05.010Z,38.50
2018-06-29T05:50:33.325Z,32.23
2018-06-29T05:53:01.607Z,33.30
2018-06-29T05:55:29.836Z,31.95
2018-06-29T05:57:58.053Z,33.30
2018-06-29T06:00:26.389Z,35.87
2018-06-29T06:02:54.584Z,41.02
2018-06-29T06:05:22.812Z,39.63
2018-06-29T06:07:51.021Z,37.25
2018-06-29T06:10:19.261Z,38.43
2018-06-29T06:12:47.560Z,41.98
2018-06-29T06:15:15.749Z,39.70
2018-06-29T06:17:43.993Z,33.28
2018-06-29T06:20:14.657Z,36.20
2018-06-29T06:22:42.942Z,36.28
2018-06-29T06:25:11.282Z,37.88
2018-06-29T06:27:39.605Z,34.58
2018-06-29T06:30:07.969Z,36.30
2018-06-29T06:32:36.285Z,35.45
2018-06-29T06:35:05.031Z,38.08
2018-06-29T06:37:33.268Z,35.68
2018-06-29T06:40:01.481Z,35.05
2018-06-29T06:42:29.715Z,37.93
2018-06-29T06:44:57.966Z,38.92
2018-06-29T06:47:26.173Z,37.95
2018-06-29T06:49:54.453Z,38.08
2018-06-29T06:52:22.644Z,35.25
2018-06-29T06:54:50.865Z,35.05
2018-06-29T06:57:19.078Z,35.30
2018-06-29T06:59:47.244Z,36.08
2018-06-29T07:02:15.445Z,34.35
2018-06-29T07:04:43.713Z,33.58
2018-06-29T07:07:12.076Z,36.30
2018-06-29T07:09:40.287Z,34.00
2018-06-29T07:12:15.080Z,33.45
2018-06-29T07:14:43.291Z,32.35
2018-06-29T07:17:11.546Z,37.48
2018-06-29T07:19:39.756Z,39.80
2018-06-29T07:22:07.977Z,37.40
2018-06-29T07:24:36.315Z,37.30
2018-06-29T07:27:04.594Z,39.60
2018-06-29T07:29:32.816Z,34.10
2018-06-29T07:32:01.059Z,33.58
2018-06-29T07:34:29.305Z,31.73
2018-06-29T07:36:57.547Z,35.35
2018-06-29T07:39:25.809Z,35.17
2018-06-29T07:41:54.024Z,32.17
2018-06-29T07:44:22.230Z,30.10
2018-06-29T07:46:50.453Z,32.30
2018-06-29T07:49:18.693Z,33.03
2018-06-29T07:51:46.889Z,31.90
2018-06-29T07:54:15.149Z,34.10
2018-06-29T07:56:43.378Z,33.60
2018-06-29T07:59:11.953Z,35.60
2018-06-29T08:01:40.173Z,35.17
2018-06-29T08:04:08.384Z,32.10
2018-06-29T08:06:36.606Z,31.45
2018-06-29T08:09:07.864Z,31.60
2018-06-29T08:11:36.129Z,30.97
2018-06-29T08:14:04.349Z,30.97
2018-06-29T08:16:32.577Z,31.55
2018-06-29T08:19:00.770Z,32.83
2018-06-29T08:21:28.981Z,29.55
2018-06-29T08:23:57.258Z,31.57
2018-06-29T08:26:27.256Z,30.10
2018-06-29T08:28:56.222Z,31.00
2018-06-29T08:31:24.505Z,29.32
2018-06-29T08:33:52.952Z,28.27
2018-06-29T08:36:21.227Z,29.98
2018-06-29T08:38:49.451Z,30.40
2018-06-29T08:41:17.784Z,32.73
2018-06-29T08:43:46.017Z,32.53
2018-06-29T08:46:14.289Z,31.52
2018-06-29T08:48:42.494Z,31.20
2018-06-29T08:51:10.749Z,29.10
2018-06-29T08:53:39.074Z,32.80
2018-06-29T08:56:07.484Z,28.52
2018-06-29T08:58:35.743Z,29.55
2018-06-29T09:01:04.113Z,29.40
2018-06-29T09:03:32.388Z,29.95
2018-06-29T09:06:00.627Z,32.90
2018-06-29T09:08:28.881Z,33.10
2018-06-29T09:10:57.185Z,32.63
2018-06-29T09:13:25.405Z,30.92
2018-06-29T09:15:53.964Z,32.65
2018-06-29T09:18:22.173Z,29.72
2018-06-29T09:20:50.425Z,30.93
2018-06-29T09:23:18.666Z,32.35
2018-06-29T09:25:46.924Z,33.50
2018-06-29T09:28:15.233Z,33.55
2018-06-29T09:30:43.504Z,31.07
2018-06-29T09:33:11.721Z,31.80
2018-06-29T09:35:39.999Z,35.10
2018-06-29T09:38:08.254Z,33.83
2018-06-29T09:40:36.440Z,33.18
2018-06-29T09:43:04.789Z,35.78
2018-06-29T09:45:33.185Z,37.23
2018-06-29T09:48:01.550Z,34.27
2018-06-29T09:50:29.755Z,35.98
2018-06-29T09:52:57.977Z,31.70
2018-06-29T09:55:26.177Z,36.47
2018-06-29T09:57:54.453Z,33.75
2018-06-29T10:00:28.204Z,35.03
2018-06-29T10:02:57.463Z,31.68
2018-06-29T10:05:26.327Z,34.18
2018-06-29T10:07:54.545Z,35.80
2018-06-29T10:10:22.782Z,32.28
2018-06-29T10:12:51.016Z,34.55
2018-06-29T10:15:20.119Z,34.60
2018-06-29T10:17:49.299Z,36.00
2018-06-29T10:20:17.695Z,35.60
2018-06-29T10:22:45.913Z,35.25
2018-06-29T10:25:14.258Z,36.73
2018-06-29T10:27:42.572Z,37.03
2018-06-29T10:30:10.802Z,38.35
2018-06-29T10:32:39.017Z,34.73
2018-06-29T10:35:08.007Z,32.28
2018-06-29T10:37:36.189Z,37.58
2018-06-29T10:40:04.570Z,37.05
2018-06-29T10:42:32.822Z,35.90
2018-06-29T10:45:01.067Z,36.80
2018-06-29T10:47:29.072Z,32.98
2018-06-29T10:49:57.321Z,37.30
2018-06-29T10:52:25.546Z,33.98
2018-06-29T10:54:53.860Z,37.33
2018-06-29T10:57:22.086Z,36.10
2018-06-29T10:59:50.301Z,39.40
2018-06-29T11:02:18.573Z,36.63
2018-06-29T11:04:46.851Z,36.25
2018-06-29T11:07:15.096Z,36.73
2018-06-29T11:09:43.298Z,36.77
2018-06-29T11:12:11.549Z,36.77
2018-06-29T11:14:39.717Z,38.63
2018-06-29T11:17:07.959Z,36.13
2018-06-29T11:19:36.229Z,42.23
2018-06-29T11:22:04.469Z,37.90
2018-06-29T11:24:32.842Z,34.03
2018-06-29T11:27:01.131Z,34.88
2018-06-29T11:29:29.353Z,37.23
2018-06-29T11:31:57.664Z,38.23
2018-06-29T11:34:25.904Z,38.10
2018-06-29T11:36:54.250Z,39.05
2018-06-29T11:39:22.473Z,37.20
2018-06-29T11:41:50.894Z,40.30
2018-06-29T11:44:19.185Z,37.40
2018-06-29T11:46:47.377Z,42.88
2018-06-29T11:49:15.686Z,43.63
2018-06-29T11:51:43.960Z,43.17
2018-06-29T11:54:12.154Z,40.58
2018-06-29T11:56:40.411Z,42.37
2018-06-29T11:59:08.667Z,38.55
2018-06-29T12:01:36.925Z,41.53
2018-06-29T12:04:05.178Z,39.70
2018-06-29T12:06:33.418Z,40.28
2018-06-29T12:09:01.706Z,36.73
2018-06-29T12:11:29.920Z,37.60
2018-06-29T12:13:58.158Z,42.50
2018-06-29T12:16:26.429Z,43.35
2018-06-29T12:18:54.643Z,43.65
2018-06-29T12:21:22.905Z,37.28
2018-06-29T12:23:51.161Z,42.10
2018-06-29T12:26:19.423Z,39.97
2018-06-29T12:28:47.672Z,38.75
2018-06-29T12:31:15.900Z,40.03
2018-06-29T12:33:44.240Z,40.95
2018-06-29T12:36:12.521Z,40.48
2018-06-29T12:38:40.854Z,37.17
2018-06-29T12:41:09.249Z,38.95
2018-06-29T12:43:37.545Z,38.48
2018-06-29T12:46:05.922Z,36.65
2018-06-29T12:48:34.164Z,33.80
2018-06-29T12:51:02.433Z,39.40
2018-06-29T12:53:30.746Z,38.38
2018-06-29T12:55:59.049Z,35.78
2018-06-29T12:58:27.247Z,35.25
2018-06-29T13:00:55.517Z,31.60
2018-06-29T13:03:23.780Z,34.83
2018-06-29T13:05:52.010Z,35.17
2018-06-29T13:08:20.257Z,34.27
2018-06-29T13:10:48.489Z,33.13
2018-06-29T13:13:16.685Z,35.95
2018-06-29T13:15:44.904Z,35.60
2018-06-29T13:18:13.098Z,36.80
2018-06-29T13:20:41.372Z,34.47
2018-06-29T13:23:09.616Z,31.68
2018-06-29T13:25:37.841Z,31.00
2018-06-29T13:28:06.199Z,30.73
2018-06-29T13:30:34.401Z,31.33
2018-06-29T13:33:02.649Z,29.87
2018-06-29T13:35:30.973Z,28.93
2018-06-29T13:37:59.168Z,24.93
2018-06-29T13:40:27.417Z,27.83
2018-06-29T13:42:55.593Z,29.23
2018-06-29T13:45:23.804Z,25.70
2018-06-29T13:47:52.073Z,31.60
2018-06-29T13:50:20.309Z,29.07
2018-06-29T13:52:48.553Z,28.03
2018-06-29T13:55:16.756Z,25.13
2018-06-29T13:57:44.994Z,28.20
2018-06-29T14:00:13.012Z,26.90
2018-06-29T14:02:41.245Z,28.20
2018-06-29T14:05:09.662Z,30.12
2018-06-29T14:07:38.021Z,28.10
2018-06-29T14:10:06.293Z,26.82
2018-06-29T14:12:34.525Z,26.40
2018-06-29T14:15:02.767Z,25.77
2018-06-29T14:17:31.071Z,23.90
2018-06-29T14:19:59.284Z,22.00
2018-06-29T14:22:27.797Z,22.20
2018-06-29T14:24:56.141Z,21.73
2018-06-29T14:27:24.398Z,21.87
2018-06-29T14:29:52.878Z,19.20
2018-06-29T14:32:21.251Z,24.05
2018-06-29T14:34:49.558Z,22.60
2018-06-29T14:37:17.773Z,22.70
2018-06-29T14:39:45.998Z,24.07
2018-06-29T14:42:14.000Z,23.73
2018-06-29T14:44:43.322Z,24.17
2018-06-29T14:47:11.584Z,23.17
2018-06-29T14:49:39.829Z,22.10
2018-06-29T14:52:08.056Z,22.10
2018-06-29T14:54:36.361Z,21.47
2018-06-29T14:57:04.741Z,25.10
2018-06-29T14:59:32.998Z,22.23
2018-06-29T15:02:01.233Z,27.90
2018-06-29T15:04:29.453Z,19.60
2018-06-29T15:06:57.838Z,25.67
2018-06-29T15:09:26.112Z,22.13
2018-06-29T15:11:54.384Z,26.17
2018-06-29T15:14:22.653Z,24.67
2018-06-29T15:16:50.910Z,22.97
2018-06-29T15:19:19.177Z,24.13
2018-06-29T15:21:47.462Z,20.40
2018-06-29T15:24:15.760Z,20.90
2018-06-29T15:26:44.022Z,23.30
2018-06-29T15:29:12.227Z,24.00
2018-06-29T15:31:40.485Z,19.73
2018-06-29T15:34:08.708Z,20.43
2018-06-29T15:36:36.932Z,20.20
2018-06-29T15:39:08.381Z,19.37
2018-06-29T15:41:36.713Z,22.53
2018-06-29T15:44:05.082Z,21.40
2018-06-29T15:46:33.519Z,23.47
2018-06-29T15:49:02.490Z,21.40
2018-06-29T15:51:30.813Z,23.47
2018-06-29T15:53:59.126Z,23.03
2018-06-29T15:56:27.373Z,22.43
2018-06-29T15:58:55.603Z,22.00
2018-06-29T16:01:23.885Z,20.57
2018-06-29T16:03:52.110Z,21.93
2018-06-29T16:06:20.389Z,21.07
2018-06-29T16:08:48.735Z,22.27
2018-06-29T16:11:16.974Z,21.70
2018-06-29T16:13:45.202Z,20.27
2018-06-29T16:16:13.474Z,23.60
2018-06-29T16:18:41.887Z,22.43
2018-06-29T16:21:10.444Z,20.63
2018-06-29T16:23:38.724Z,21.37
2018-06-29T16:26:07.040Z,21.33
2018-06-29T16:28:35.362Z,22.80
2018-06-29T16:31:03.662Z,19.60
2018-06-29T16:33:31.899Z,21.23
2018-06-29T16:36:00.195Z,22.50
2018-06-29T16:38:28.429Z,21.33
2018-06-29T16:40:56.742Z,19.40
2018-06-29T16:43:25.009Z,24.47
2018-06-29T16:45:53.322Z,28.40
2018-06-29T16:48:21.561Z,20.07
2018-06-29T16:50:49.818Z,25.00
2018-06-29T16:53:18.052Z,23.37
2018-06-29T16:55:46.369Z,20.17
2018-06-29T16:58:14.654Z,24.70
2018-06-29T17:00:42.914Z,25.30
2018-06-29T17:03:11.332Z,25.53
2018-06-29T17:05:39.685Z,20.33
2018-06-29T17:08:07.908Z,20.80
2018-06-29T17:10:36.132Z,19.97
2018-06-29T17:13:04.417Z,21.87
2018-06-29T17:15:32.665Z,19.60
2018-06-29T17:18:00.849Z,17.90
2018-06-29T17:20:29.109Z,19.10
2018-06-29T17:22:57.473Z,17.73
2018-06-29T17:25:25.601Z,18.73
2018-06-29T17:27:53.820Z,17.70
2018-06-29T17:30:22.019Z,19.63
2018-06-29T17:32:50.279Z,18.23
2018-06-29T17:35:18.553Z,19.77
2018-06-29T17:37:46.781Z,19.87
2018-06-29T17:40:15.090Z,17.77
2018-06-29T17:42:43.334Z,19.07
2018-06-29T17:45:11.557Z,19.27
2018-06-29T17:47:39.892Z,18.77
2018-06-29T17:50:08.169Z,20.57
2018-06-29T17:52:36.424Z,18.57
2018-06-29T17:55:04.875Z,19.10
2018-06-29T17:57:33.298Z,18.83
2018-06-29T18:00:01.613Z,18.80
2018-06-29T18:02:29.860Z,19.90
2018-06-29T18:04:58.117Z,19.90
2018-06-29T18:07:26.331Z,18.40
2018-06-29T18:09:54.714Z,19.33
2018-06-29T18:12:22.994Z,19.63
2018-06-29T18:14:51.223Z,17.43
2018-06-29T18:17:19.572Z,16.40
2018-06-29T18:19:47.801Z,21.43
2018-06-29T18:22:16.097Z,17.93
2018-06-29T18:24:44.366Z,16.83
2018-06-29T18:27:12.537Z,18.27
2018-06-29T18:29:41.407Z,19.10
2018-06-29T18:32:10.467Z,17.53
2018-06-29T18:34:38.762Z,17.13
2018-06-29T18:37:07.000Z,17.70
2018-06-29T18:39:35.194Z,18.30
2018-06-29T18:42:03.617Z,17.17
2018-06-29T18:44:31.810Z,20.23
2018-06-29T18:47:00.116Z,18.83
2018-06-29T18:49:28.450Z,20.20
2018-06-29T18:51:56.701Z,23.83
2018-06-29T18:54:24.974Z,19.93
2018-06-29T18:56:53.185Z,20.53
2018-06-29T18:59:21.549Z,19.30
2018-06-29T19:01:50.525Z,18.90
2018-06-29T19:04:18.733Z,20.57
2018-06-29T19:06:46.979Z,20.40
2018-06-29T19:09:15.191Z,21.67
2018-06-29T19:11:43.426Z,19.20
2018-06-29T19:14:11.651Z,18.77
2018-06-29T19:16:39.910Z,17.43
2018-06-29T19:19:08.173Z,19.83
2018-06-29T19:21:37.334Z,18.60
2018-06-29T19:24:05.628Z,18.70
2018-06-29T19:26:33.925Z,16.63
2018-06-29T19:29:02.145Z,22.27
2018-06-29T19:31:30.389Z,21.33
2018-06-29T19:33:58.697Z,20.93
2018-06-29T19:36:27.106Z,21.40
2018-06-29T19:38:55.488Z,23.70
2018-06-29T19:41:23.781Z,21.57
2018-06-29T19:43:52.393Z,21.87
2018-06-29T19:46:20.646Z,25.70
2018-06-29T19:48:48.910Z,20.33
2018-06-29T19:51:17.224Z,19.07
2018-06-29T19:53:45.446Z,19.80
2018-06-29T19:56:13.779Z,21.00
2018-06-29T19:58:42.019Z,22.60
2018-06-29T20:01:10.461Z,20.53
2018-06-29T20:03:39.115Z,17.40
2018-06-29T20:06:10.936Z,16.87
2018-06-29T20:08:39.328Z,23.10
2018-06-29T20:11:07.649Z,22.53
2018-06-29T20:13:35.965Z,26.13
2018-06-29T20:16:04.319Z,36.17
2018-06-29T20:18:32.533Z,31.10
2018-06-29T20:21:00.760Z,23.73
2018-06-29T20:23:29.037Z,26.63
2018-06-29T20:25:57.295Z,25.60
2018-06-29T20:28:25.536Z,23.07
2018-06-29T20:30:53.805Z,23.40
2018-06-29T20:33:22.081Z,20.57
2018-06-29T20:35:50.584Z,22.03
2018-06-29T20:38:18.997Z,21.10
2018-06-29T20:40:47.212Z,20.27
2018-06-29T20:43:15.505Z,22.40
2018-06-29T20:45:43.822Z,22.60
2018-06-29T20:48:12.045Z,23.03
2018-06-29T20:50:40.307Z,22.60
2018-06-29T20:53:08.569Z,22.40
2018-06-29T20:55:38.636Z,22.98
2018-06-29T20:58:10.783Z,23.98
2018-06-29T21:00:42.319Z,20.70
2018-06-29T21:03:14.797Z,20.40
2018-06-29T21:05:43.393Z,18.60
2018-06-29T21:08:12.321Z,21.23
2018-06-29T21:10:40.978Z,21.60
2018-06-29T21:13:10.447Z,20.92
2018-06-29T21:15:38.746Z,21.87
2018-06-29T21:18:08.138Z,23.20
2018-06-29T21:20:36.402Z,22.93
2018-06-29T21:23:04.631Z,20.43
2018-06-29T21:25:32.922Z,22.50
2018-06-29T21:28:01.151Z,23.02
2018-06-29T21:30:29.420Z,21.50
2018-06-29T21:32:57.649Z,23.07
2018-06-29T21:35:25.882Z,22.22
2018-06-29T21:37:54.607Z,19.67
2018-06-29T21:40:22.837Z,22.13
2018-06-29T21:42:51.117Z,21.33
2018-06-29T21:45:19.383Z,19.60
2018-06-29T21:47:47.667Z,19.40
2018-06-29T21:50:15.923Z,20.08
2018-06-29T21:52:44.201Z,18.95
2018-06-29T21:55:12.450Z,18.30
2018-06-29T21:57:40.704Z,19.73
2018-06-29T22:00:11.410Z,20.12
2018-06-29T22:02:39.713Z,21.12
2018-06-29T22:05:08.118Z,22.90
2018-06-29T22:07:36.469Z,24.55
2018-06-29T22:10:05.320Z,22.70
2018-06-29T22:12:33.323Z,24.40
2018-06-29T22:15:01.570Z,24.20
2018-06-29T22:17:30.045Z,23.22
2018-06-29T22:19:58.318Z,20.70
2018-06-29T22:22:26.530Z,17.57
2018-06-29T22:24:54.773Z,18.80
2018-06-29T22:27:23.021Z,19.90
2018-06-29T22:29:51.227Z,21.65
2018-06-29T22:32:19.475Z,22.60
2018-06-29T22:34:47.693Z,24.43
2018-06-29T22:37:15.953Z,21.15
2018-06-29T22:39:44.203Z,20.12
2018-06-29T22:42:12.465Z,19.67
2018-06-29T22:44:40.729Z,18.55
2018-06-29T22:47:08.937Z,20.12
2018-06-29T22:49:37.169Z,20.30
2018-06-29T22:52:05.422Z,20.52
2018-06-29T22:54:33.647Z,19.92
2018-06-29T22:57:01.884Z,19.70
2018-06-29T22:59:30.105Z,17.82
2018-06-29T23:01:58.411Z,18.07
2018-06-29T23:04:26.675Z,18.10
2018-06-29T23:06:54.865Z,18.40
2018-06-29T23:09:23.125Z,18.40
2018-06-29T23:11:51.438Z,17.17
2018-06-29T23:14:19.700Z,16.90
2018-06-29T23:16:47.934Z,18.65
2018-06-29T23:19:16.152Z,18.10
2018-06-29T23:21:44.390Z,18.02
2018-06-29T23:24:12.600Z,16.70
2018-06-29T23:26:40.835Z,17.40
2018-06-29T23:29:09.086Z,17.95
2018-06-29T23:31:37.338Z,16.30
2018-06-29T23:34:05.609Z,18.45
2018-06-29T23:36:33.828Z,16.50
2018-06-29T23:39:02.139Z,16.17
2018-06-29T23:41:30.413Z,16.40
2018-06-29T23:43:58.678Z,16.70
2018-06-29T23:46:27.065Z,16.45
2018-06-29T23:48:55.253Z,15.95
2018-06-29T23:51:23.476Z,17.73
2018-06-29T23:53:51.704Z,17.90
2018-06-29T23:56:19.938Z,17.15
2018-06-29T23:58:48.217Z,15.80
